Terminal Aerodrome Forecast
Issued by NWS

Home | Current Version | Previous Version | Text Only | Print | Product List | Glossary On
Versions: 1 2 3 4 5 6 7 8 9 10 11 12 13
166
FTUS42 KMLB 270541
TAFLEE
TAF
KLEE 270541Z 2706/2806 25003KT P6SM FEW030 SCT200
     FM271600 25004KT P6SM SCT040
     FM271900 27006KT P6SM VCSH SCT040
     FM280000 24003KT P6SM FEW040 SCT250=

USA.gov is the U.S. government's official web portal to all federal, state and local government web resources and services.